sensor_id;sensor_type;location;lat;lon;timestamp;pressure;altitude;pressure_sealevel;temperature;humidity
39699;BME280;25372;50.582;12.250;2023-07-22T00:00:20;99471.84;;;12.73;92.30
39699;BME280;25372;50.582;12.250;2023-07-22T00:10:42;99471.84;;;12.85;92.23
39699;BME280;25372;50.582;12.250;2023-07-22T00:21:04;99476.88;;;12.77;92.35
39699;BME280;25372;50.582;12.250;2023-07-22T00:31:26;99488.97;;;12.79;91.16
39699;BME280;25372;50.582;12.250;2023-07-22T00:41:49;99498.19;;;12.62;91.02
39699;BME280;25372;50.582;12.250;2023-07-22T00:52:10;99503.47;;;12.62;91.45
39699;BME280;25372;50.582;12.250;2023-07-22T01:02:32;99492.94;;;12.51;92.43
39699;BME280;25372;50.582;12.250;2023-07-22T01:12:55;99506.44;;;12.46;92.41
39699;BME280;25372;50.582;12.250;2023-07-22T01:23:17;99487.16;;;12.80;90.35
39699;BME280;25372;50.582;12.250;2023-07-22T01:33:38;99490.88;;;13.11;88.78
39699;BME280;25372;50.582;12.250;2023-07-22T01:44:00;99496.00;;;13.13;86.98
39699;BME280;25372;50.582;12.250;2023-07-22T01:54:22;99500.44;;;13.12;87.17
39699;BME280;25372;50.582;12.250;2023-07-22T02:04:44;99507.06;;;12.95;85.95
39699;BME280;25372;50.582;12.250;2023-07-22T02:15:06;99528.13;;;12.95;86.73
39699;BME280;25372;50.582;12.250;2023-07-22T02:25:29;99532.09;;;12.90;87.27
39699;BME280;25372;50.582;12.250;2023-07-22T02:35:50;99537.81;;;12.83;87.35
39699;BME280;25372;50.582;12.250;2023-07-22T02:46:12;99543.81;;;12.74;86.89
39699;BME280;25372;50.582;12.250;2023-07-22T02:56:33;99556.03;;;12.75;87.59
39699;BME280;25372;50.582;12.250;2023-07-22T03:06:55;99556.16;;;12.85;85.86
39699;BME280;25372;50.582;12.250;2023-07-22T03:17:17;99559.00;;;12.82;85.81
39699;BME280;25372;50.582;12.250;2023-07-22T03:27:40;99569.19;;;12.75;86.30
39699;BME280;25372;50.582;12.250;2023-07-22T03:38:00;99577.00;;;12.77;85.77
39699;BME280;25372;50.582;12.250;2023-07-22T03:48:23;99588.63;;;12.97;86.00
39699;BME280;25372;50.582;12.250;2023-07-22T03:58:44;99590.06;;;13.01;84.94
39699;BME280;25372;50.582;12.250;2023-07-22T04:09:06;99586.34;;;13.15;85.37
39699;BME280;25372;50.582;12.250;2023-07-22T04:19:28;99582.63;;;13.29;85.31
39699;BME280;25372;50.582;12.250;2023-07-22T04:29:50;99601.22;;;13.50;84.11
39699;BME280;25372;50.582;12.250;2023-07-22T04:40:12;99616.06;;;13.63;84.00
39699;BME280;25372;50.582;12.250;2023-07-22T04:50:37;99620.56;;;13.83;83.91
39699;BME280;25372;50.582;12.250;2023-07-22T05:01:00;99629.94;;;14.09;83.18
39699;BME280;25372;50.582;12.250;2023-07-22T05:11:22;99635.69;;;14.47;80.48
39699;BME280;25372;50.582;12.250;2023-07-22T05:21:43;99641.66;;;14.81;79.41
39699;BME280;25372;50.582;12.250;2023-07-22T05:32:06;99648.19;;;16.79;71.52
39699;BME280;25372;50.582;12.250;2023-07-22T05:42:28;99657.50;;;17.13;69.56
39699;BME280;25372;50.582;12.250;2023-07-22T05:52:50;99656.13;;;17.37;69.77
39699;BME280;25372;50.582;12.250;2023-07-22T06:03:11;99668.94;;;17.79;67.57
39699;BME280;25372;50.582;12.250;2023-07-22T06:13:34;99682.81;;;16.68;71.04
39699;BME280;25372;50.582;12.250;2023-07-22T06:23:54;99689.94;;;16.47;69.90
39699;BME280;25372;50.582;12.250;2023-07-22T06:34:17;99696.44;;;16.04;68.82
39699;BME280;25372;50.582;12.250;2023-07-22T06:44:38;99691.31;;;16.22;70.42
39699;BME280;25372;50.582;12.250;2023-07-22T06:55:00;99698.13;;;16.15;67.18
39699;BME280;25372;50.582;12.250;2023-07-22T07:05:20;99705.53;;;16.31;66.67
39699;BME280;25372;50.582;12.250;2023-07-22T07:15:46;99711.41;;;16.54;65.14
39699;BME280;25372;50.582;12.250;2023-07-22T07:26:08;99724.13;;;16.60;63.72
39699;BME280;25372;50.582;12.250;2023-07-22T07:36:31;99726.31;;;16.85;63.75
39699;BME280;25372;50.582;12.250;2023-07-22T07:46:52;99746.00;;;17.12;61.91
39699;BME280;25372;50.582;12.250;2023-07-22T07:57:14;99754.94;;;16.91;59.17
39699;BME280;25372;50.582;12.250;2023-07-22T08:07:35;99735.28;;;17.51;55.95
39699;BME280;25372;50.582;12.250;2023-07-22T08:17:57;99755.25;;;17.83;58.91
39699;BME280;25372;50.582;12.250;2023-07-22T08:28:18;99764.47;;;17.89;54.46
39699;BME280;25372;50.582;12.250;2023-07-22T08:38:40;99759.66;;;18.30;53.20
39699;BME280;25372;50.582;12.250;2023-07-22T08:49:01;99753.22;;;22.16;45.20
39699;BME280;25372;50.582;12.250;2023-07-22T08:59:25;99767.03;;;22.28;41.78
39699;BME280;25372;50.582;12.250;2023-07-22T09:09:46;99754.38;;;23.90;40.83
39699;BME280;25372;50.582;12.250;2023-07-22T09:20:11;99767.22;;;20.80;45.44
39699;BME280;25372;50.582;12.250;2023-07-22T09:30:34;99747.28;;;22.60;41.61
39699;BME280;25372;50.582;12.250;2023-07-22T09:40:57;99740.13;;;21.98;43.25
39699;BME280;25372;50.582;12.250;2023-07-22T09:51:18;99738.66;;;21.38;45.18
39699;BME280;25372;50.582;12.250;2023-07-22T10:01:40;99737.09;;;20.03;47.31
39699;BME280;25372;50.582;12.250;2023-07-22T10:12:01;99742.22;;;20.98;48.15
39699;BME280;25372;50.582;12.250;2023-07-22T10:22:24;99732.03;;;21.09;41.75
39699;BME280;25372;50.582;12.250;2023-07-22T10:32:46;99735.13;;;21.38;43.51
39699;BME280;25372;50.582;12.250;2023-07-22T10:43:09;99735.75;;;20.07;45.52
39699;BME280;25372;50.582;12.250;2023-07-22T10:53:30;99730.94;;;20.03;44.83
39699;BME280;25372;50.582;12.250;2023-07-22T11:04:10;99734.53;;;20.70;46.46
39699;BME280;25372;50.582;12.250;2023-07-22T11:14:33;99730.72;;;21.14;43.35
39699;BME280;25372;50.582;12.250;2023-07-22T11:24:56;99719.81;;;20.40;47.55
39699;BME280;25372;50.582;12.250;2023-07-22T11:35:17;99709.41;;;22.72;44.85
39699;BME280;25372;50.582;12.250;2023-07-22T11:45:40;99701.94;;;21.89;44.34
39699;BME280;25372;50.582;12.250;2023-07-22T11:56:02;99692.25;;;21.88;43.46
39699;BME280;25372;50.582;12.250;2023-07-22T12:06:26;99676.56;;;22.78;40.63
39699;BME280;25372;50.582;12.250;2023-07-22T12:16:52;99683.25;;;23.72;38.80
39699;BME280;25372;50.582;12.250;2023-07-22T12:27:17;99684.22;;;23.35;38.52
39699;BME280;25372;50.582;12.250;2023-07-22T12:37:37;99670.91;;;23.26;38.19
39699;BME280;25372;50.582;12.250;2023-07-22T12:47:59;99663.19;;;23.83;39.25
39699;BME280;25372;50.582;12.250;2023-07-22T12:58:20;99669.84;;;22.97;38.87
39699;BME280;25372;50.582;12.250;2023-07-22T13:08:42;99663.88;;;22.95;39.46
39699;BME280;25372;50.582;12.250;2023-07-22T13:19:03;99657.78;;;22.86;38.71
39699;BME280;25372;50.582;12.250;2023-07-22T13:29:26;99646.06;;;23.48;39.72
39699;BME280;25372;50.582;12.250;2023-07-22T13:39:47;99646.63;;;22.59;38.40
39699;BME280;25372;50.582;12.250;2023-07-22T13:50:10;99642.00;;;23.52;38.54
39699;BME280;25372;50.582;12.250;2023-07-22T14:00:30;99627.28;;;24.71;36.60
39699;BME280;25372;50.582;12.250;2023-07-22T14:10:54;99616.88;;;23.53;37.36
39699;BME280;25372;50.582;12.250;2023-07-22T14:21:14;99609.66;;;26.02;33.79
39699;BME280;25372;50.582;12.250;2023-07-22T14:31:37;99606.66;;;23.41;38.01
39699;BME280;25372;50.582;12.250;2023-07-22T14:41:57;99600.09;;;25.65;35.75
39699;BME280;25372;50.582;12.250;2023-07-22T14:52:20;99584.59;;;25.12;34.19
39699;BME280;25372;50.582;12.250;2023-07-22T15:02:40;99589.09;;;23.39;38.34
39699;BME280;25372;50.582;12.250;2023-07-22T15:13:02;99593.13;;;26.05;31.88
39699;BME280;25372;50.582;12.250;2023-07-22T15:23:23;99594.13;;;23.49;37.69
39699;BME280;25372;50.582;12.250;2023-07-22T15:33:46;99586.78;;;23.05;36.09
39699;BME280;25372;50.582;12.250;2023-07-22T15:44:07;99583.69;;;23.54;35.92
39699;BME280;25372;50.582;12.250;2023-07-22T15:54:29;99586.59;;;22.39;40.30
39699;BME280;25372;50.582;12.250;2023-07-22T16:04:50;99582.16;;;22.31;39.37
39699;BME280;25372;50.582;12.250;2023-07-22T16:15:12;99573.00;;;23.97;35.68
39699;BME280;25372;50.582;12.250;2023-07-22T16:25:33;99572.22;;;24.25;37.66
39699;BME280;25372;50.582;12.250;2023-07-22T16:35:56;99564.47;;;24.09;37.61
39699;BME280;25372;50.582;12.250;2023-07-22T16:46:18;99559.41;;;24.78;36.32
39699;BME280;25372;50.582;12.250;2023-07-22T16:56:41;99558.59;;;24.20;36.39
39699;BME280;25372;50.582;12.250;2023-07-22T17:07:02;99552.19;;;23.99;37.01
39699;BME280;25372;50.582;12.250;2023-07-22T17:17:23;99537.00;;;23.41;38.21
39699;BME280;25372;50.582;12.250;2023-07-22T17:27:44;99549.97;;;22.93;39.58
39699;BME280;25372;50.582;12.250;2023-07-22T17:38:06;99544.06;;;22.14;43.09
39699;BME280;25372;50.582;12.250;2023-07-22T17:48:27;99534.00;;;21.46;49.69
39699;BME280;25372;50.582;12.250;2023-07-22T17:58:49;99519.06;;;20.32;51.04
39699;BME280;25372;50.582;12.250;2023-07-22T18:09:10;99527.59;;;20.02;53.66
39699;BME280;25372;50.582;12.250;2023-07-22T18:19:32;99539.16;;;19.51;56.91
39699;BME280;25372;50.582;12.250;2023-07-22T18:29:53;99533.78;;;19.26;58.98
39699;BME280;25372;50.582;12.250;2023-07-22T18:40:19;99534.38;;;18.77;59.37
39699;BME280;25372;50.582;12.250;2023-07-22T18:50:40;99535.44;;;18.31;62.29
39699;BME280;25372;50.582;12.250;2023-07-22T19:01:02;99541.59;;;17.41;65.59
39699;BME280;25372;50.582;12.250;2023-07-22T19:11:23;99549.28;;;17.16;64.81
39699;BME280;25372;50.582;12.250;2023-07-22T19:21:45;99548.53;;;16.39;68.71
39699;BME280;25372;50.582;12.250;2023-07-22T19:32:06;99560.41;;;16.15;70.00
39699;BME280;25372;50.582;12.250;2023-07-22T19:42:29;99548.94;;;15.75;71.23
39699;BME280;25372;50.582;12.250;2023-07-22T19:52:50;99553.97;;;15.58;71.15
39699;BME280;25372;50.582;12.250;2023-07-22T20:03:12;99549.38;;;15.60;67.70
39699;BME280;25372;50.582;12.250;2023-07-22T20:13:33;99544.22;;;15.69;68.51
39699;BME280;25372;50.582;12.250;2023-07-22T20:23:55;99552.31;;;15.77;68.10
39699;BME280;25372;50.582;12.250;2023-07-22T20:34:16;99556.25;;;15.92;65.83
39699;BME280;25372;50.582;12.250;2023-07-22T20:44:39;99545.91;;;15.89;64.53
39699;BME280;25372;50.582;12.250;2023-07-22T20:54:59;99543.97;;;15.91;65.10
39699;BME280;25372;50.582;12.250;2023-07-22T21:05:22;99548.19;;;15.94;67.76
39699;BME280;25372;50.582;12.250;2023-07-22T21:15:42;99544.91;;;15.61;65.20
39699;BME280;25372;50.582;12.250;2023-07-22T21:26:05;99547.13;;;15.46;67.08
39699;BME280;25372;50.582;12.250;2023-07-22T21:36:26;99546.38;;;15.34;67.05
39699;BME280;25372;50.582;12.250;2023-07-22T21:46:48;99550.97;;;15.32;67.28
39699;BME280;25372;50.582;12.250;2023-07-22T21:57:09;99549.38;;;15.09;66.99
39699;BME280;25372;50.582;12.250;2023-07-22T22:07:32;99549.94;;;15.13;68.55
39699;BME280;25372;50.582;12.250;2023-07-22T22:17:54;99546.09;;;15.17;68.52
39699;BME280;25372;50.582;12.250;2023-07-22T22:28:16;99553.38;;;15.04;67.70
39699;BME280;25372;50.582;12.250;2023-07-22T22:38:37;99549.41;;;15.19;66.73
39699;BME280;25372;50.582;12.250;2023-07-22T22:48:59;99545.88;;;14.99;66.53
39699;BME280;25372;50.582;12.250;2023-07-22T22:59:20;99549.53;;;15.08;67.44
39699;BME280;25372;50.582;12.250;2023-07-22T23:09:42;99541.44;;;15.09;65.56
39699;BME280;25372;50.582;12.250;2023-07-22T23:20:04;99539.81;;;15.18;67.55
39699;BME280;25372;50.582;12.250;2023-07-22T23:30:26;99533.38;;;15.11;65.23
39699;BME280;25372;50.582;12.250;2023-07-22T23:40:47;99518.63;;;15.08;68.34
39699;BME280;25372;50.582;12.250;2023-07-22T23:51:09;99520.16;;;15.01;66.64
